Time;durP1;ratioP1;P1;durP2;ratioP2;P2;SDS_P1;SDS_P2;PMS_P1;PMS_P2;Temp;Humidity;BMP_temperature;BMP_pressure;BME280_temperature;BME280_humidity;BME280_pressure;Samples;Min_cycle;Max_cycle;Signal;HPM_P1;HPM_P2
2022/05/29 00:01:42;;;;;;;;;1.00;1.00;;;;;17.80;56.86;101618.84;5038763;28;45273;-72
2022/05/29 00:04:07;;;;;;;;;2.33;0.00;;;;;17.76;57.53;101615.28;5026557;28;62346;-72
2022/05/29 00:06:38;;;;;;;;;2.00;0.00;;;;;17.73;57.87;101609.94;5037490;28;57464;-72
2022/05/29 00:09:03;;;;;;;;;1.00;1.00;;;;;17.68;57.91;101619.75;5033257;28;45215;-72
2022/05/29 00:11:29;;;;;;;;;1.00;1.00;;;;;17.62;58.29;101606.41;5015393;28;45459;-71
2022/05/29 00:13:54;;;;;;;;;1.67;1.00;;;;;17.60;58.37;101605.56;5019982;28;62023;-72
2022/05/29 00:16:20;;;;;;;;;3.00;0.00;;;;;17.55;58.97;101605.56;5018882;28;45331;-72
2022/05/29 00:18:45;;;;;;;;;2.00;1.00;;;;;17.51;58.84;101597.59;5031994;28;45168;-72
2022/05/29 00:21:11;;;;;;;;;1.00;1.00;;;;;17.50;59.15;101602.03;5019307;28;45268;-72
2022/05/29 00:23:41;;;;;;;;;1.33;1.00;;;;;17.47;59.29;101602.09;5038872;28;47660;-73
2022/05/29 00:26:06;;;;;;;;;2.67;1.00;;;;;17.46;60.17;101594.06;5020721;28;45491;-73
2022/05/29 00:28:32;;;;;;;;;2.00;0.00;;;;;17.43;59.76;101589.63;5018447;28;45422;-72
2022/05/29 00:30:57;;;;;;;;;2.33;1.00;;;;;17.40;59.87;101594.09;5030614;28;45289;-71
2022/05/29 00:33:23;;;;;;;;;1.00;1.00;;;;;17.36;60.57;101587.88;5019359;28;46159;-73
2022/05/29 00:35:48;;;;;;;;;3.00;2.00;;;;;17.34;60.36;101592.34;5018396;28;58026;-71
2022/05/29 00:38:13;;;;;;;;;1.00;1.00;;;;;17.30;60.70;101593.25;5025692;28;56882;-73
2022/05/29 00:41:08;;;;;;;;;1.00;0.67;;;;;17.29;60.53;101589.69;5038439;28;45518;-72
2022/05/29 00:43:34;;;;;;;;;3.00;2.00;;;;;17.24;61.06;101596.81;5018430;28;45738;-72
2022/05/29 00:46:00;;;;;;;;;1.33;1.00;;;;;17.23;61.02;101596.84;5031258;28;45290;-72
2022/05/29 00:48:26;;;;;;;;;1.00;1.00;;;;;17.21;61.18;101598.63;5018641;28;45357;-72
2022/05/29 00:50:56;;;;;;;;;1.00;1.00;;;;;17.17;61.61;101589.75;5018716;28;45429;-73
2022/05/29 00:53:22;;;;;;;;;1.00;1.00;;;;;17.14;61.79;101591.53;5033075;28;46561;-72
2022/05/29 00:55:51;;;;;;;;;2.00;1.00;;;;;17.11;61.94;101586.22;4984100;28;45562;-72
2022/05/29 00:58:17;;;;;;;;;0.00;0.00;;;;;17.08;62.21;101584.44;5005445;28;45534;-72
2022/05/29 01:00:43;;;;;;;;;1.00;1.00;;;;;17.07;62.48;101585.34;5017740;28;45575;-72
2022/05/29 01:03:08;;;;;;;;;2.00;1.00;;;;;17.06;62.46;101582.69;5022658;28;45967;-73
2022/05/29 01:05:38;;;;;;;;;1.00;0.67;;;;;17.01;63.49;101585.38;5030609;28;45384;-72
2022/05/29 01:08:10;;;;;;;;;2.00;0.67;;;;;16.97;63.68;101586.25;5030884;28;45341;-72
2022/05/29 01:10:40;;;;;;;;;1.00;1.00;;;;;16.94;63.61;101581.84;5028820;28;45348;-72
2022/05/29 01:13:11;;;;;;;;;1.67;1.00;;;;;16.91;64.03;101581.84;5023504;28;46772;-72
2022/05/29 01:15:39;;;;;;;;;1.33;1.33;;;;;16.89;64.06;101586.28;5017071;28;45238;-72
2022/05/29 01:18:30;;;;;;;;;1.67;1.67;;;;;16.87;64.45;101574.72;4999697;28;45322;-73
2022/05/29 01:20:55;;;;;;;;;1.00;1.00;;;;;16.85;64.39;101573.84;5000607;28;45338;-72
2022/05/29 01:23:26;;;;;;;;;3.00;1.00;;;;;16.83;65.14;101582.72;5037773;28;46600;-72
2022/05/29 01:26:30;;;;;;;;;2.00;0.00;;;;;16.82;65.45;101568.50;5037410;28;45583;-72
2022/05/29 01:29:04;;;;;;;;;1.33;1.00;;;;;16.80;66.13;101564.09;5032236;28;45546;-72
2022/05/29 01:31:43;;;;;;;;;1.00;1.00;;;;;16.76;65.92;101557.88;4996582;28;45525;-72
2022/05/29 01:34:26;;;;;;;;;0.00;0.00;;;;;16.71;66.90;101557.00;5032530;28;47493;-72
2022/05/29 01:37:11;;;;;;;;;1.00;1.00;;;;;16.65;66.74;101554.31;5026377;28;45405;-72
2022/05/29 01:39:54;;;;;;;;;2.67;1.00;;;;;16.63;67.42;101553.44;5020046;28;45311;-72
2022/05/29 01:42:38;;;;;;;;;1.00;1.00;;;;;16.59;67.36;101551.66;5030595;28;45648;-72
2022/05/29 01:45:06;;;;;;;;;1.00;1.00;;;;;16.53;67.66;101552.56;4999642;28;47290;-72
2022/05/29 01:47:45;;;;;;;;;1.00;1.00;;;;;16.48;68.38;101549.91;5017661;28;45469;-71
2022/05/29 01:50:19;;;;;;;;;2.00;1.00;;;;;16.46;68.64;101550.81;5031234;28;45301;-72
2022/05/29 01:52:52;;;;;;;;;3.33;1.00;;;;;16.44;69.22;101553.47;5033163;28;45327;-72
2022/05/29 01:55:22;;;;;;;;;2.33;1.00;;;;;16.42;69.20;101567.69;5021834;28;47685;-72
2022/05/29 01:57:51;;;;;;;;;1.00;1.00;;;;;16.39;69.36;101552.56;5000777;28;45405;-72
2022/05/29 02:00:19;;;;;;;;;3.00;1.67;;;;;16.37;70.02;101545.50;5030621;28;45483;-72
2022/05/29 02:02:50;;;;;;;;;2.00;2.00;;;;;16.36;70.91;101547.28;5019301;28;45293;-72
2022/05/29 02:05:19;;;;;;;;;1.67;1.67;;;;;16.35;70.50;101555.25;5007157;28;45598;-71
2022/05/29 02:07:50;;;;;;;;;3.00;1.00;;;;;16.30;70.63;101552.63;5029243;28;46596;-72
2022/05/29 02:10:23;;;;;;;;;1.00;1.00;;;;;16.30;70.57;101562.34;5016489;28;45408;-72
2022/05/29 02:13:05;;;;;;;;;3.00;1.00;;;;;16.25;71.34;101549.06;5036900;28;45577;-72
2022/05/29 02:15:36;;;;;;;;;1.00;1.00;;;;;16.23;71.73;101549.03;5022716;28;46608;-71
2022/05/29 02:18:03;;;;;;;;;2.00;2.00;;;;;16.18;71.95;101553.47;5029788;28;45384;-72
2022/05/29 02:20:36;;;;;;;;;2.00;2.00;;;;;16.17;72.25;101546.38;4999103;28;45537;-71
2022/05/29 02:23:13;;;;;;;;;1.00;1.00;;;;;16.14;72.18;101551.72;5035219;28;45346;-72
2022/05/29 02:25:39;;;;;;;;;4.00;1.00;;;;;16.12;72.23;101542.84;5019067;28;46487;-72
2022/05/29 02:28:10;;;;;;;;;1.00;1.00;;;;;16.07;72.28;101539.28;5018581;28;45322;-72
2022/05/29 02:31:08;;;;;;;;;1.67;1.00;;;;;16.07;73.55;101541.06;5015091;28;45214;-72
2022/05/29 02:33:33;;;;;;;;;5.00;1.00;;;;;16.04;73.51;101549.06;4998471;28;45473;-71
2022/05/29 02:36:29;;;;;;;;;1.00;1.00;;;;;15.98;73.50;101542.84;5036424;28;46490;-71
2022/05/29 02:39:07;;;;;;;;;1.33;1.33;;;;;15.94;73.24;101537.53;5036416;28;45313;-72
2022/05/29 02:41:41;;;;;;;;;2.00;2.00;;;;;15.91;74.10;101538.38;5036895;28;45551;-72
2022/05/29 02:44:24;;;;;;;;;4.00;1.00;;;;;15.89;73.78;101533.97;5036273;28;45199;-71
2022/05/29 02:47:06;;;;;;;;;3.00;2.00;;;;;15.86;74.24;101539.28;5019997;28;46263;-71
2022/05/29 02:49:36;;;;;;;;;1.67;1.00;;;;;15.81;74.38;101538.38;5016823;28;45320;-72
2022/05/29 02:52:08;;;;;;;;;1.67;1.67;;;;;15.78;75.24;101533.97;5001983;28;45188;-72
2022/05/29 02:54:34;;;;;;;;;2.67;2.00;;;;;15.74;75.17;101532.19;5025387;28;45294;-72
2022/05/29 02:57:00;;;;;;;;;1.33;1.33;;;;;15.73;75.72;101534.84;5015873;28;59230;-71
2022/05/29 02:59:48;;;;;;;;;1.00;1.00;;;;;15.69;75.67;101525.94;5012597;28;45587;-72
2022/05/29 03:02:39;;;;;;;;;4.00;2.00;;;;;15.67;75.78;101530.41;5007059;28;45356;-72
2022/05/29 03:05:20;;;;;;;;;1.67;1.67;;;;;15.65;75.87;101530.38;5006550;28;45584;-72
2022/05/29 03:08:13;;;;;;;;;3.00;1.00;;;;;15.65;76.23;101522.38;5007050;28;46345;-72
2022/05/29 03:10:41;;;;;;;;;2.00;2.00;;;;;15.62;76.61;101525.03;5014796;28;45255;-71
2022/05/29 03:13:25;;;;;;;;;1.00;1.00;;;;;15.55;76.72;101528.56;4999688;28;45365;-72
2022/05/29 03:16:02;;;;;;;;;3.00;2.00;;;;;15.53;76.77;101521.47;5016514;28;45223;-72
2022/05/29 03:18:40;;;;;;;;;2.00;2.00;;;;;15.49;77.39;101530.31;5016078;28;45460;-72
2022/05/29 03:21:11;;;;;;;;;2.00;2.00;;;;;15.46;78.10;101528.56;4998183;28;45475;-72
2022/05/29 03:23:49;;;;;;;;;1.00;1.00;;;;;15.42;77.72;101526.75;5018346;28;45472;-72
2022/05/29 03:26:33;;;;;;;;;1.33;1.33;;;;;15.39;77.71;101526.75;5018283;28;45357;-72
2022/05/29 03:29:04;;;;;;;;;2.00;2.00;;;;;15.37;78.38;101525.88;5011997;28;47388;-72
2022/05/29 03:31:31;;;;;;;;;4.00;1.67;;;;;15.32;79.23;101516.97;5016154;28;45345;-71
2022/05/29 03:33:57;;;;;;;;;1.67;1.67;;;;;15.28;79.04;101520.50;5019627;28;45340;-72
2022/05/29 03:36:25;;;;;;;;;3.67;1.67;;;;;15.24;79.46;101519.63;5036261;28;45562;-72
2022/05/29 03:38:50;;;;;;;;;2.00;2.00;;;;;15.21;79.62;101516.94;5035671;28;47533;-72
2022/05/29 03:41:33;;;;;;;;;2.67;1.00;;;;;15.18;79.38;101519.63;5037722;28;45357;-72
2022/05/29 03:43:59;;;;;;;;;1.67;1.67;;;;;15.14;80.08;101513.41;5021169;28;45300;-72
2022/05/29 03:46:25;;;;;;;;;2.33;2.00;;;;;15.11;80.05;101509.81;5039046;28;50191;-72
2022/05/29 03:48:50;;;;;;;;;3.33;2.00;;;;;15.10;80.31;101505.41;5037080;28;46809;-71
2022/05/29 03:51:15;;;;;;;;;2.00;2.00;;;;;15.09;80.72;101503.63;5018843;28;52888;-72
2022/05/29 03:53:41;;;;;;;;;2.00;2.00;;;;;15.09;80.78;101508.94;5021927;28;45344;-72
2022/05/29 03:56:06;;;;;;;;;3.00;1.67;;;;;15.07;80.75;101508.91;5038707;28;56636;-72
2022/05/29 03:58:31;;;;;;;;;3.00;1.67;;;;;15.07;81.23;101508.03;5031218;28;61695;-71
2022/05/29 04:00:57;;;;;;;;;2.00;2.00;;;;;15.05;81.31;101512.47;5034123;28;45500;-71
2022/05/29 04:03:22;;;;;;;;;2.33;1.00;;;;;15.03;81.79;101509.81;5030882;28;45217;-72
2022/05/29 04:05:48;;;;;;;;;2.00;2.00;;;;;15.02;81.35;101509.78;5026944;28;45491;-72
2022/05/29 04:13:43;;;;;;;;;3.00;1.00;;;;;14.98;82.31;101508.91;5038551;28;45486;-72
2022/05/29 04:16:09;;;;;;;;;1.67;1.00;;;;;14.98;82.87;101508.91;5039051;28;45278;-72
2022/05/29 04:18:34;;;;;;;;;2.00;2.00;;;;;14.98;82.91;101519.53;5038515;28;46798;-72
2022/05/29 04:21:00;;;;;;;;;1.00;1.00;;;;;14.98;83.09;101516.00;5038233;28;56727;-71
2022/05/29 04:23:25;;;;;;;;;2.00;2.00;;;;;14.96;83.74;101517.75;5025373;28;56702;-73
2022/05/29 04:25:51;;;;;;;;;3.00;1.00;;;;;14.94;83.50;101518.63;5028564;28;45633;-72
2022/05/29 04:28:16;;;;;;;;;2.00;2.00;;;;;14.93;84.21;101515.97;5021751;28;45903;-72
2022/05/29 04:30:42;;;;;;;;;1.00;1.00;;;;;14.91;83.90;101512.41;5038044;28;61047;-72
2022/05/29 04:33:08;;;;;;;;;6.00;2.00;;;;;14.92;83.97;101514.22;5022320;28;45282;-72
2022/05/29 04:35:37;;;;;;;;;1.00;1.00;;;;;14.92;84.24;101507.13;5038054;28;55296;-71
2022/05/29 04:38:03;;;;;;;;;3.67;2.00;;;;;14.91;84.18;101510.66;5038488;28;45651;-72
2022/05/29 04:40:30;;;;;;;;;2.67;2.00;;;;;14.90;84.83;101508.84;5020856;28;45404;-72
2022/05/29 04:42:55;;;;;;;;;3.00;1.00;;;;;14.91;84.65;101504.44;5038313;28;45276;-72
2022/05/29 04:45:21;;;;;;;;;1.67;1.67;;;;;14.89;84.78;101511.53;5019479;28;45606;-71
2022/05/29 04:47:46;;;;;;;;;4.67;2.00;;;;;14.89;84.79;101516.84;5020506;28;63072;-71
2022/05/29 04:50:12;;;;;;;;;1.00;1.00;;;;;14.89;84.86;101507.09;5038456;28;45219;-72
2022/05/29 04:52:37;;;;;;;;;1.33;1.33;;;;;14.89;84.87;101506.19;5037412;28;45325;-72
2022/05/29 04:55:04;;;;;;;;;1.00;1.00;;;;;14.88;85.10;101510.63;5038672;28;45270;-71
2022/05/29 04:57:29;;;;;;;;;1.00;1.00;;;;;14.89;85.87;101506.19;5037748;28;46792;-72
2022/05/29 04:59:55;;;;;;;;;2.67;1.67;;;;;14.89;85.40;101499.13;5027279;28;55091;-71
2022/05/29 05:02:20;;;;;;;;;6.00;2.00;;;;;14.90;85.68;101502.66;5023488;28;45393;-72
2022/05/29 05:04:46;;;;;;;;;4.00;1.00;;;;;14.90;85.80;101505.31;5023060;28;45361;-72
2022/05/29 05:07:11;;;;;;;;;3.33;1.67;;;;;14.90;85.81;101507.97;5036581;28;52432;-72
2022/05/29 05:09:37;;;;;;;;;1.33;1.33;;;;;14.90;86.29;101510.63;5033879;28;45333;-72
2022/05/29 05:12:02;;;;;;;;;3.67;2.00;;;;;14.89;86.58;101507.09;5025917;28;56273;-71
2022/05/29 05:14:28;;;;;;;;;1.00;1.00;;;;;14.90;86.03;101508.84;5034122;28;45316;-72
2022/05/29 05:16:53;;;;;;;;;2.00;2.00;;;;;14.90;86.46;101500.88;5036900;28;61226;-72
2022/05/29 05:19:19;;;;;;;;;3.00;1.67;;;;;14.93;86.22;101503.56;5018543;28;61711;-72
2022/05/29 05:21:45;;;;;;;;;2.33;1.00;;;;;14.96;86.33;101509.75;5018292;28;45222;-73
2022/05/29 05:24:11;;;;;;;;;2.67;1.00;;;;;14.95;86.60;101500.91;5020658;28;45440;-73
2022/05/29 05:26:36;;;;;;;;;4.00;1.00;;;;;14.98;86.82;101503.59;5019940;28;46612;-72
2022/05/29 05:29:02;;;;;;;;;1.33;1.33;;;;;14.99;86.91;101510.69;5027024;28;45366;-72
2022/05/29 05:31:27;;;;;;;;;1.67;1.67;;;;;14.98;87.65;101500.03;5028079;28;45309;-73
2022/05/29 05:33:53;;;;;;;;;4.33;1.33;;;;;15.00;86.65;101503.59;5010608;28;52636;-72
2022/05/29 05:36:19;;;;;;;;;1.67;1.33;;;;;15.01;87.40;101503.59;5030006;28;45409;-73
2022/05/29 05:38:45;;;;;;;;;2.67;1.00;;;;;15.02;87.42;101505.38;5028699;28;45309;-71
2022/05/29 05:41:11;;;;;;;;;2.00;2.00;;;;;15.05;87.37;101507.16;5022998;28;45568;-72
2022/05/29 05:43:37;;;;;;;;;2.00;2.00;;;;;15.06;87.08;101504.47;5037677;28;45228;-72
2022/05/29 05:46:06;;;;;;;;;1.00;1.00;;;;;15.10;87.67;101505.41;5029664;28;46747;-72
2022/05/29 05:48:31;;;;;;;;;3.00;1.00;;;;;15.12;87.99;101507.16;5018842;28;45470;-72
2022/05/29 05:50:57;;;;;;;;;1.00;1.00;;;;;15.15;87.35;101506.31;5037009;28;52755;-72
2022/05/29 05:53:23;;;;;;;;;3.67;2.00;;;;;15.15;87.09;101504.53;5017733;28;45476;-72
2022/05/29 05:55:49;;;;;;;;;3.00;1.33;;;;;15.19;87.14;101508.09;5017359;28;46561;-72
2022/05/29 05:58:14;;;;;;;;;1.00;1.00;;;;;15.22;87.20;101510.75;5021272;28;56255;-72
2022/05/29 06:00:39;;;;;;;;;4.00;2.00;;;;;15.25;87.37;101501.91;5026067;28;48785;-74
2022/05/29 06:03:05;;;;;;;;;3.00;2.00;;;;;15.26;87.37;101503.66;5035061;28;45689;-73
2022/05/29 06:05:30;;;;;;;;;1.00;1.00;;;;;15.27;87.59;101506.31;5028105;28;51419;-73
2022/05/29 06:07:56;;;;;;;;;1.67;1.67;;;;;15.25;87.07;101502.78;5030167;28;63986;-73
2022/05/29 06:10:21;;;;;;;;;1.67;1.67;;;;;15.28;86.95;101496.56;5035174;28;45460;-73
2022/05/29 06:12:47;;;;;;;;;1.00;1.00;;;;;15.30;87.16;101505.47;5027779;28;45481;-73
2022/05/29 06:15:12;;;;;;;;;3.00;1.67;;;;;15.31;86.83;101492.16;5027673;28;46647;-74
2022/05/29 06:17:38;;;;;;;;;1.00;1.00;;;;;15.36;87.25;101489.50;5036769;28;45440;-73
2022/05/29 06:20:06;;;;;;;;;3.00;1.67;;;;;15.41;86.99;101482.41;5031774;28;51873;-74
2022/05/29 06:22:35;;;;;;;;;2.00;2.00;;;;;15.46;87.37;101485.97;5033984;28;45333;-74
2022/05/29 06:25:01;;;;;;;;;1.00;1.00;;;;;15.49;87.12;101480.63;5036275;28;45737;-73
2022/05/29 06:27:28;;;;;;;;;2.33;0.33;;;;;15.53;86.70;101479.75;5031405;28;46410;-73
2022/05/29 06:29:53;;;;;;;;;1.00;1.00;;;;;15.57;86.58;101483.31;5027852;28;45548;-73
2022/05/29 06:32:19;;;;;;;;;2.00;2.00;;;;;15.61;86.76;101491.31;5027579;28;45568;-73
2022/05/29 06:34:44;;;;;;;;;1.00;1.00;;;;;15.64;86.14;101483.34;5029728;28;64030;-71
2022/05/29 06:37:10;;;;;;;;;2.00;2.00;;;;;15.71;86.06;101481.56;5023360;28;45499;-70
2022/05/29 06:39:36;;;;;;;;;1.00;1.00;;;;;15.77;85.45;101483.38;5016953;28;45254;-71
2022/05/29 06:42:02;;;;;;;;;2.00;1.00;;;;;15.81;85.42;101483.34;5017060;28;45487;-71
2022/05/29 06:44:27;;;;;;;;;1.00;1.00;;;;;15.89;85.95;101483.38;5016683;28;47411;-71
2022/05/29 06:46:53;;;;;;;;;1.00;1.00;;;;;15.96;85.20;101488.69;5027252;28;58000;-71
2022/05/29 06:49:18;;;;;;;;;0.67;0.00;;;;;16.04;84.97;101483.34;5031161;28;47811;-71
2022/05/29 06:51:43;;;;;;;;;3.00;2.00;;;;;16.11;84.19;101489.56;5026532;28;45479;-71
2022/05/29 06:54:09;;;;;;;;;5.67;2.00;;;;;16.15;84.35;101486.00;5035901;28;56685;-71
2022/05/29 06:56:34;;;;;;;;;1.00;1.00;;;;;16.19;83.49;101493.09;5036164;28;45388;-72
2022/05/29 06:59:01;;;;;;;;;1.00;1.00;;;;;16.21;82.80;101488.66;5029129;28;45462;-74
2022/05/29 07:07:21;;;;;;;;;2.00;1.33;;;;;16.25;82.87;101485.09;4972113;28;45695;-73
2022/05/29 07:09:46;;;;;;;;;3.67;1.00;;;;;16.29;83.24;101491.28;4972614;28;55877;-74
2022/05/29 07:12:24;;;;;;;;;1.67;1.00;;;;;16.33;82.06;101480.63;4994307;28;56014;-73
2022/05/29 07:14:56;;;;;;;;;3.00;2.00;;;;;16.36;81.68;101485.97;5010173;28;46700;-73
2022/05/29 07:17:27;;;;;;;;;2.00;0.33;;;;;16.40;81.78;101476.16;5032577;28;45727;-73
2022/05/29 07:19:52;;;;;;;;;2.00;1.00;;;;;16.46;81.90;101484.16;5038612;28;45455;-73
2022/05/29 07:22:18;;;;;;;;;1.00;1.00;;;;;16.52;81.75;101476.16;5038907;28;45380;-74
2022/05/29 07:24:44;;;;;;;;;3.33;1.33;;;;;16.60;81.17;101478.78;5021244;28;45743;-73
2022/05/29 07:27:09;;;;;;;;;1.00;1.00;;;;;16.69;79.80;101481.41;5028816;28;45405;-73
2022/05/29 07:29:35;;;;;;;;;1.00;1.00;;;;;16.76;79.08;101477.84;5034957;28;45509;-73
2022/05/29 07:32:01;;;;;;;;;2.00;1.00;;;;;16.83;78.30;101479.63;5031339;28;45840;-73
2022/05/29 07:34:27;;;;;;;;;1.67;0.33;;;;;16.89;78.56;101479.59;5031218;28;45649;-73
2022/05/29 07:36:55;;;;;;;;;4.00;1.00;;;;;16.97;77.85;101469.75;5037652;28;46509;-72
2022/05/29 07:39:20;;;;;;;;;0.67;0.67;;;;;17.07;77.47;101478.59;5020721;28;45330;-73
2022/05/29 07:44:29;;;;;;;;;1.00;1.00;;;;;17.16;76.72;101472.34;5035486;28;45654;-73
2022/05/29 07:46:55;;;;;;;;;1.00;1.00;;;;;17.12;76.39;101468.78;5034672;28;57796;-73
2022/05/29 07:49:21;;;;;;;;;2.67;1.33;;;;;17.11;76.42;101464.34;5038302;28;45491;-72
2022/05/29 07:51:47;;;;;;;;;1.00;1.00;;;;;17.11;76.54;101471.47;5036301;28;45281;-73
2022/05/29 07:54:13;;;;;;;;;5.00;2.00;;;;;17.13;76.09;101470.56;5035572;28;45830;-76
2022/05/29 07:56:38;;;;;;;;;2.00;0.67;;;;;17.15;75.99;101476.78;5023332;28;60569;-73
2022/05/29 07:59:03;;;;;;;;;1.00;1.00;;;;;17.13;75.91;101478.56;5029817;28;45439;-73
2022/05/29 08:01:29;;;;;;;;;3.00;1.00;;;;;17.13;75.21;101478.56;5030519;28;53543;-74
2022/05/29 08:03:54;;;;;;;;;1.33;1.00;;;;;17.20;74.75;101474.06;5024093;28;45708;-73
2022/05/29 08:06:19;;;;;;;;;1.00;1.00;;;;;17.32;74.84;101474.03;5017952;28;60061;-73
2022/05/29 08:08:45;;;;;;;;;1.00;1.00;;;;;17.41;74.26;101467.72;5034822;28;45408;-77
2022/05/29 08:11:10;;;;;;;;;2.00;1.00;;;;;17.50;74.39;101460.53;5034898;28;45606;-75
2022/05/29 08:13:36;;;;;;;;;2.00;1.00;;;;;17.67;74.59;101463.06;5016435;28;46640;-75
2022/05/29 08:16:05;;;;;;;;;0.67;0.67;;;;;17.84;74.15;101457.59;5018633;28;45381;-76
2022/05/29 08:18:32;;;;;;;;;2.33;1.00;;;;;17.93;73.32;101457.53;5031167;28;45370;-76
2022/05/29 08:20:57;;;;;;;;;4.67;1.00;;;;;17.96;72.75;101452.16;5033611;28;45628;-72
2022/05/29 08:23:23;;;;;;;;;1.33;1.00;;;;;17.94;71.76;101453.06;5026052;28;45966;-75
2022/05/29 08:31:20;;;;;;;;;1.00;1.00;;;;;17.87;71.31;101440.69;5038118;28;45384;-75
2022/05/29 08:33:47;;;;;;;;;0.33;0.33;;;;;17.91;71.41;101448.66;5020292;28;46499;-76
2022/05/29 08:36:15;;;;;;;;;2.00;0.67;;;;;18.02;70.33;101444.09;5031209;28;45381;-73
2022/05/29 08:38:44;;;;;;;;;1.67;1.00;;;;;18.14;70.11;101442.19;5036917;28;45326;-74
2022/05/29 08:41:14;;;;;;;;;1.00;1.00;;;;;18.32;69.75;101450.00;5037819;28;45539;-74
2022/05/29 08:44:02;;;;;;;;;2.00;0.00;;;;;18.39;68.32;101451.72;5014550;28;47332;-73
2022/05/29 08:46:36;;;;;;;;;0.00;0.00;;;;;18.33;67.95;101436.63;5021667;28;45465;-73
2022/05/29 08:49:01;;;;;;;;;1.00;1.00;;;;;18.32;67.90;101444.66;5019248;28;45511;-72
2022/05/29 08:51:58;;;;;;;;;1.00;1.00;;;;;18.44;67.65;101444.53;5016167;28;45480;-76
2022/05/29 08:54:52;;;;;;;;;2.00;0.33;;;;;18.62;67.42;101435.38;5033896;28;45717;-76
2022/05/29 08:57:32;;;;;;;;;1.00;1.00;;;;;18.70;67.04;101430.88;5020767;28;45601;-77
2022/05/29 08:59:59;;;;;;;;;1.00;1.00;;;;;18.74;66.74;101426.34;5029874;28;45455;-76
2022/05/29 09:05:07;;;;;;;;;0.00;0.00;;;;;18.76;66.62;101422.75;5122778;23;74161;-74
2022/05/29 09:07:36;;;;;;;;;1.00;1.00;;;;;18.77;66.17;101412.94;5002074;28;45357;-74
2022/05/29 09:10:10;;;;;;;;;2.00;1.00;;;;;18.75;64.92;101417.41;5002610;28;45469;-74
2022/05/29 09:12:44;;;;;;;;;1.00;1.00;;;;;18.79;65.07;101416.47;4991888;28;45616;-74
2022/05/29 09:15:13;;;;;;;;;1.67;0.00;;;;;18.84;62.81;101419.97;5028448;28;47334;-75
2022/05/29 09:17:43;;;;;;;;;1.00;1.00;;;;;18.80;63.52;101421.81;5017323;28;45261;-74
2022/05/29 09:20:24;;;;;;;;;1.00;1.00;;;;;18.82;64.02;101419.13;5017347;28;45230;-75
2022/05/29 09:22:50;;;;;;;;;1.00;1.00;;;;;18.83;63.43;101418.22;5017097;28;45480;-74
2022/05/29 09:25:21;;;;;;;;;2.67;1.00;;;;;18.82;63.41;101416.44;5012555;28;54728;-74
2022/05/29 09:27:47;;;;;;;;;2.00;1.00;;;;;18.77;63.05;101418.28;5016260;28;45518;-74
2022/05/29 09:30:13;;;;;;;;;3.00;1.00;;;;;18.71;63.22;101421.06;5008174;28;45566;-75
2022/05/29 09:32:47;;;;;;;;;2.00;2.00;;;;;18.67;64.11;101413.94;5017388;28;45563;-74
2022/05/29 09:35:46;;;;;;;;;1.33;1.00;;;;;18.70;64.17;101411.28;5015901;28;46465;-73
2022/05/29 09:38:31;;;;;;;;;2.33;1.00;;;;;18.78;63.96;101404.00;4972049;28;45376;-75
2022/05/29 09:40:57;;;;;;;;;3.00;1.00;;;;;18.81;63.87;101393.28;4994612;28;45382;-74
2022/05/29 09:43:25;;;;;;;;;3.00;2.00;;;;;18.82;63.97;101395.91;5016590;28;45562;-73
2022/05/29 09:45:51;;;;;;;;;1.00;1.00;;;;;18.87;63.57;101389.63;4996662;28;47728;-73
2022/05/29 09:51:24;;;;;;;;;3.00;1.00;;;;;18.94;60.68;101392.19;5008770;28;45423;-74
2022/05/29 09:53:53;;;;;;;;;1.00;1.00;;;;;18.92;60.67;101394.00;5009138;28;45351;-73
2022/05/29 09:56:37;;;;;;;;;3.67;1.00;;;;;18.89;61.07;101388.69;5005046;28;46732;-74
2022/05/29 09:59:22;;;;;;;;;1.00;1.00;;;;;18.79;60.17;101385.25;5003037;28;45447;-74
2022/05/29 10:01:49;;;;;;;;;3.67;1.00;;;;;18.74;61.26;101379.06;5002233;28;45235;-74
2022/05/29 10:04:46;;;;;;;;;5.00;1.00;;;;;18.87;61.24;101370.91;4990648;28;45429;-74
2022/05/29 10:07:21;;;;;;;;;0.33;0.33;;;;;19.09;61.09;101366.97;4967264;28;47313;-74
2022/05/29 10:10:17;;;;;;;;;1.00;1.00;;;;;19.31;60.59;101364.84;4977957;28;45374;-72
2022/05/29 10:12:45;;;;;;;;;0.00;0.00;;;;;19.47;60.95;101362.78;4983253;28;45806;-74
2022/05/29 10:15:33;;;;;;;;;1.33;0.33;;;;;19.57;60.40;101370.63;4984245;28;45389;-73
2022/05/29 10:18:03;;;;;;;;;1.00;0.67;;;;;19.59;59.81;101370.63;4995918;28;47716;-73
2022/05/29 10:20:34;;;;;;;;;2.00;1.00;;;;;19.55;58.94;101374.28;4996257;28;45385;-73
2022/05/29 10:23:03;;;;;;;;;0.33;0.33;;;;;19.48;59.50;101373.47;4988918;28;45426;-73
2022/05/29 10:25:32;;;;;;;;;2.33;1.33;;;;;19.45;60.07;101370.84;4983428;28;45358;-72
2022/05/29 10:28:01;;;;;;;;;3.33;3.33;;;;;19.45;60.09;101368.19;4970115;28;46760;-74
2022/05/29 10:30:36;;;;;;;;;3.33;3.33;;;;;19.48;60.43;101372.59;4979226;28;45513;-73
2022/05/29 10:33:07;;;;;;;;;3.00;1.33;;;;;19.51;60.91;101373.44;4969749;28;45453;-74
2022/05/29 10:35:38;;;;;;;;;1.33;1.33;;;;;19.48;59.84;101376.16;4979241;28;45437;-73
2022/05/29 10:38:19;;;;;;;;;4.00;1.00;;;;;19.40;59.84;101369.16;4988205;28;46733;-74
2022/05/29 10:40:46;;;;;;;;;4.67;2.00;;;;;19.35;59.71;101356.72;4995789;28;45346;-73
2022/05/29 10:43:12;;;;;;;;;5.33;2.33;;;;;19.35;58.60;101363.88;4996138;28;45343;-74
2022/05/29 10:45:46;;;;;;;;;7.33;5.33;;;;;19.34;58.25;101357.66;4994882;28;45308;-73
2022/05/29 10:48:20;;;;;;;;;4.00;3.00;;;;;19.40;57.64;101356.66;4986349;28;47537;-73
2022/05/29 10:51:01;;;;;;;;;1.33;1.33;;;;;19.52;57.92;101352.88;4976464;28;45490;-76
2022/05/29 10:53:34;;;;;;;;;1.33;1.33;;;;;19.64;56.45;101355.38;4995431;28;45461;-74
2022/05/29 10:56:18;;;;;;;;;10.67;10.67;;;;;19.77;56.20;101350.69;4998656;28;45505;-74
2022/05/29 10:58:49;;;;;;;;;10.33;4.33;;;;;19.88;55.68;101349.56;4987696;28;47372;-73
2022/05/29 11:04:32;;;;;;;;;4.67;3.00;;;;;20.05;55.27;101353.72;5006825;28;45302;-75
2022/05/29 11:07:08;;;;;;;;;6.67;4.67;;;;;20.16;56.17;101349.00;4993938;28;46690;-73
2022/05/29 11:10:04;;;;;;;;;3.00;2.67;;;;;20.21;56.82;101339.06;5017077;28;46483;-76
2022/05/29 11:12:38;;;;;;;;;3.33;2.00;;;;;20.25;54.69;101343.47;5013492;28;45437;-76
2022/05/29 11:15:19;;;;;;;;;3.00;3.00;;;;;20.30;56.47;101338.00;5016427;28;45420;-76
2022/05/29 11:18:00;;;;;;;;;0.67;0.67;;;;;20.37;55.77;101337.84;5018881;28;46864;-74
2022/05/29 11:20:36;;;;;;;;;4.67;3.00;;;;;20.50;56.24;101325.06;5012183;28;47584;-76
2022/05/29 11:23:16;;;;;;;;;3.33;2.00;;;;;20.64;54.58;101328.31;5014191;28;45507;-73
2022/05/29 11:25:51;;;;;;;;;1.33;1.00;;;;;20.77;53.88;101328.91;5012403;28;45606;-74
2022/05/29 11:28:19;;;;;;;;;27.50;27.50;;;;;20.86;51.90;101323.34;5017970;28;45353;-74
2022/05/29 11:31:15;;;;;;;;;4.00;2.67;;;;;20.93;52.25;101314.25;5012203;28;46149;-76
2022/05/29 11:33:52;;;;;;;;;1.33;1.33;;;;;21.05;51.58;101307.69;5002563;28;45275;-75
2022/05/29 11:36:29;;;;;;;;;1.00;1.00;;;;;21.23;50.67;101310.81;5018488;28;45218;-73
2022/05/29 11:39:20;;;;;;;;;2.00;1.00;;;;;21.35;47.27;101299.78;5015350;28;45555;-74
2022/05/29 11:41:54;;;;;;;;;1.67;1.67;;;;;21.50;48.15;101298.50;5018387;28;46574;-76
2022/05/29 11:44:37;;;;;;;;;2.00;2.00;;;;;21.62;47.67;101298.16;5014361;28;45358;-72
2022/05/29 11:53:05;;;;;;;;;1.00;1.00;;;;;21.52;47.64;101281.44;5026359;28;45420;-73
2022/05/29 11:55:34;;;;;;;;;1.00;1.00;;;;;21.52;47.88;101267.09;5006026;28;45527;-73
2022/05/29 11:58:15;;;;;;;;;1.00;1.00;;;;;21.62;48.46;101271.28;5004365;28;45623;-73
2022/05/29 12:00:45;;;;;;;;;3.00;2.00;;;;;21.89;48.80;101257.09;4999313;28;45346;-74
2022/05/29 12:03:18;;;;;;;;;1.00;1.00;;;;;22.19;48.74;101259.81;5017381;28;46412;-73
2022/05/29 12:06:09;;;;;;;;;2.00;1.00;;;;;22.40;47.08;101259.16;5006136;28;45631;-74
2022/05/29 12:08:52;;;;;;;;;1.33;1.00;;;;;22.52;44.82;101243.53;5005604;28;45368;-74
2022/05/29 12:11:36;;;;;;;;;3.00;2.00;;;;;22.47;43.42;101260.72;5009236;28;45681;-73
2022/05/29 12:14:22;;;;;;;;;1.00;1.00;;;;;22.38;43.34;101247.56;5016964;28;47519;-74
2022/05/29 12:16:50;;;;;;;;;3.00;1.33;;;;;22.37;43.23;101250.28;5018088;28;45436;-75